createdAt,value
2018-07-30T00:04:06.437Z,42.00
2018-07-30T00:09:30.510Z,42.10
2018-07-30T00:14:34.444Z,42.20
2018-07-30T00:19:38.363Z,42.20
2018-07-30T00:24:42.315Z,42.20
2018-07-30T00:29:46.198Z,42.20
2018-07-30T00:34:59.359Z,42.30
2018-07-30T00:40:03.097Z,42.40
2018-07-30T00:45:07.014Z,42.50
2018-07-30T00:50:10.925Z,42.60
2018-07-30T00:55:14.926Z,42.50
2018-07-30T01:00:19.063Z,42.60
2018-07-30T01:05:22.997Z,42.70
2018-07-30T01:10:26.820Z,42.80
2018-07-30T01:15:30.746Z,42.90
2018-07-30T01:20:35.041Z,42.90
2018-07-30T01:30:42.301Z,42.70
2018-07-30T01:35:46.215Z,42.90
2018-07-30T01:40:50.108Z,42.80
2018-07-30T01:45:53.899Z,42.70
2018-07-30T01:50:57.820Z,42.90
2018-07-30T01:56:01.755Z,43.00
2018-07-30T02:01:05.693Z,42.70
2018-07-30T02:06:09.591Z,42.80
2018-07-30T02:11:13.671Z,43.00
2018-07-30T02:16:26.736Z,43.10
2018-07-30T02:21:30.640Z,43.50
2018-07-30T02:26:34.571Z,43.70
2018-07-30T02:31:38.442Z,43.80
2018-07-30T02:36:42.355Z,43.40
2018-07-30T02:41:46.351Z,44.00
2018-07-30T02:46:50.291Z,43.60
2018-07-30T02:51:54.270Z,43.50
2018-07-30T02:57:01.519Z,43.50
2018-07-30T03:02:05.985Z,43.60
2018-07-30T03:07:10.199Z,43.80
2018-07-30T03:12:13.980Z,44.00
2018-07-30T03:17:18.009Z,44.00
2018-07-30T03:22:21.720Z,43.90
2018-07-30T03:27:26.011Z,44.00
2018-07-30T03:32:29.976Z,44.00
2018-07-30T03:37:33.907Z,44.10
2018-07-30T03:42:37.933Z,44.00
2018-07-30T03:53:24.021Z,44.10
2018-07-30T03:58:33.419Z,44.30
2018-07-30T04:03:37.262Z,44.30
2018-07-30T04:14:21.432Z,44.30
2018-07-30T04:19:25.619Z,44.30
2018-07-30T04:24:29.447Z,44.50
2018-07-30T04:29:33.380Z,44.50
2018-07-30T04:34:37.320Z,44.50
2018-07-30T04:39:41.159Z,44.40
2018-07-30T04:44:45.074Z,44.70
2018-07-30T04:49:49.070Z,44.90
2018-07-30T04:54:53.409Z,45.00
2018-07-30T04:59:57.216Z,45.10
2018-07-30T05:05:01.308Z,45.10
2018-07-30T05:10:05.645Z,45.90
2018-07-30T05:15:29.691Z,45.20
2018-07-30T05:20:33.636Z,45.40
2018-07-30T05:25:37.422Z,45.30
2018-07-30T05:30:41.384Z,45.50
2018-07-30T05:35:45.391Z,45.60
2018-07-30T05:40:49.543Z,45.70
2018-07-30T05:45:53.616Z,45.80
2018-07-30T05:50:57.456Z,45.80
2018-07-30T05:56:01.366Z,46.00
2018-07-30T06:01:05.649Z,46.30
2018-07-30T06:06:09.773Z,46.30
2018-07-30T06:11:13.532Z,46.50
2018-07-30T06:16:17.325Z,46.70
2018-07-30T06:21:21.280Z,46.70
2018-07-30T06:26:26.357Z,46.90
2018-07-30T06:31:30.503Z,47.20
2018-07-30T06:36:34.300Z,47.30
2018-07-30T06:41:38.385Z,46.70
2018-07-30T06:46:42.551Z,46.20
2018-07-30T06:51:46.378Z,46.00
2018-07-30T06:56:50.583Z,46.50
2018-07-30T07:01:54.730Z,45.80
2018-07-30T07:06:58.560Z,45.80
2018-07-30T07:12:02.563Z,45.60
2018-07-30T07:17:06.873Z,45.40
2018-07-30T07:22:10.752Z,45.40
2018-07-30T07:27:14.672Z,45.60
2018-07-30T07:32:18.412Z,45.00
2018-07-30T07:37:22.289Z,44.80
2018-07-30T07:42:26.207Z,44.80
2018-07-30T07:47:30.607Z,44.60
2018-07-30T07:52:34.878Z,44.30
2018-07-30T07:57:38.734Z,44.20
2018-07-30T08:02:42.710Z,44.20
2018-07-30T08:07:46.559Z,44.10
2018-07-30T08:12:50.326Z,44.20
2018-07-30T08:22:57.813Z,44.30
2018-07-30T08:28:01.686Z,44.20
2018-07-30T08:33:05.566Z,44.10
2018-07-30T08:38:09.624Z,43.90
2018-07-30T08:43:13.371Z,43.90
2018-07-30T08:48:17.445Z,43.70
2018-07-30T08:53:21.276Z,43.60
2018-07-30T08:58:35.626Z,43.80
2018-07-30T09:03:39.367Z,43.70
2018-07-30T09:08:43.572Z,43.50
2018-07-30T09:13:47.515Z,43.40
2018-07-30T09:35:34.963Z,43.10
2018-07-30T09:40:38.824Z,43.40
2018-07-30T09:45:43.017Z,43.00
2018-07-30T09:50:46.973Z,43.00
2018-07-30T09:55:51.256Z,42.80
2018-07-30T10:01:00.375Z,43.40
2018-07-30T10:06:05.210Z,43.00
2018-07-30T10:11:10.173Z,42.40
2018-07-30T10:16:13.953Z,42.30
2018-07-30T10:21:17.549Z,42.80
2018-07-30T10:26:21.763Z,42.10
2018-07-30T10:31:25.607Z,42.20
2018-07-30T10:47:26.969Z,41.70
2018-07-30T10:52:31.016Z,41.60
2018-07-30T10:57:34.928Z,41.40
2018-07-30T11:02:38.690Z,41.40
2018-07-30T11:07:42.596Z,41.30
2018-07-30T11:12:46.530Z,41.10
2018-07-30T11:17:50.310Z,40.90
2018-07-30T11:22:54.143Z,41.40
2018-07-30T11:27:58.212Z,40.60
2018-07-30T11:33:01.916Z,40.50
2018-07-30T11:43:41.325Z,40.30
2018-07-30T11:48:45.233Z,40.20
2018-07-30T11:53:49.259Z,40.00
2018-07-30T12:04:23.276Z,39.60
2018-07-30T12:09:32.899Z,39.60
2018-07-30T12:14:37.085Z,39.10
2018-07-30T12:19:41.016Z,39.10
2018-07-30T12:24:44.728Z,39.20
2018-07-30T12:29:48.590Z,39.10
2018-07-30T12:34:52.406Z,39.30
2018-07-30T12:39:56.742Z,38.90
2018-07-30T12:45:00.784Z,38.80
2018-07-30T12:50:04.803Z,38.70
2018-07-30T12:55:08.967Z,38.20
2018-07-30T13:00:13.093Z,38.50
2018-07-30T13:05:16.976Z,37.70
2018-07-30T13:10:20.792Z,38.00
2018-07-30T13:15:24.595Z,37.70
2018-07-30T13:20:28.551Z,37.30
2018-07-30T13:25:32.719Z,37.20
2018-07-30T13:30:36.805Z,37.20
2018-07-30T13:35:40.884Z,37.10
2018-07-30T13:40:44.682Z,37.00
2018-07-30T13:45:48.578Z,36.70
2018-07-30T13:50:52.925Z,36.80
2018-07-30T13:55:56.839Z,36.30
2018-07-30T14:01:00.658Z,36.20
2018-07-30T14:06:04.516Z,36.10
2018-07-30T14:11:08.350Z,36.20
2018-07-30T14:16:12.336Z,36.00
2018-07-30T14:21:16.123Z,35.90
2018-07-30T14:26:20.044Z,35.90
2018-07-30T14:31:23.964Z,35.70
2018-07-30T14:36:27.788Z,35.90
2018-07-30T14:41:31.559Z,35.90
2018-07-30T14:46:35.515Z,35.90
2018-07-30T14:51:39.531Z,35.90
2018-07-30T14:56:43.465Z,35.90
2018-07-30T15:01:47.477Z,35.60
2018-07-30T15:06:51.344Z,35.40
2018-07-30T15:11:55.277Z,35.20
2018-07-30T15:16:59.348Z,35.00
2018-07-30T15:22:03.272Z,35.10
2018-07-30T15:27:07.707Z,35.40
2018-07-30T15:32:11.742Z,35.30
2018-07-30T15:37:15.629Z,35.10
2018-07-30T15:42:19.536Z,35.20
2018-07-30T15:47:23.668Z,34.90
2018-07-30T15:52:27.524Z,35.00
2018-07-30T15:57:31.617Z,34.90
2018-07-30T16:02:35.579Z,35.00
2018-07-30T16:07:39.421Z,35.10
2018-07-30T16:12:43.605Z,35.10
2018-07-30T16:17:47.397Z,35.10
2018-07-30T16:22:51.623Z,35.00
2018-07-30T16:27:55.575Z,35.10
2018-07-30T16:32:59.720Z,35.00
2018-07-30T16:38:03.860Z,34.90
2018-07-30T16:43:08.253Z,35.00
2018-07-30T16:48:12.097Z,35.10
2018-07-30T16:53:16.040Z,35.00
2018-07-30T17:14:44.622Z,35.30
2018-07-30T17:19:48.707Z,35.30
2018-07-30T17:24:52.673Z,35.40
2018-07-30T17:35:00.551Z,35.30
2018-07-30T17:40:05.046Z,36.60
2018-07-30T17:45:11.629Z,37.30
2018-07-30T17:50:15.781Z,37.30
2018-07-30T17:55:19.718Z,37.80
2018-07-30T18:00:23.645Z,38.40
2018-07-30T18:05:27.596Z,39.50
2018-07-30T18:10:31.711Z,39.90
2018-07-30T18:15:35.899Z,40.10
2018-07-30T18:20:39.692Z,39.80
2018-07-30T18:25:43.613Z,40.00
2018-07-30T18:30:47.535Z,40.30
2018-07-30T18:35:51.461Z,40.00
2018-07-30T18:40:55.654Z,40.20
2018-07-30T18:45:59.517Z,40.00
2018-07-30T18:51:03.792Z,40.10
2018-07-30T18:56:08.347Z,40.30
2018-07-30T19:01:13.670Z,40.30
2018-07-30T19:06:17.735Z,40.30
2018-07-30T19:11:21.894Z,40.20
2018-07-30T19:16:25.932Z,40.30
2018-07-30T19:21:30.223Z,40.30
2018-07-30T19:26:34.182Z,40.20
2018-07-30T19:31:38.012Z,40.40
2018-07-30T19:36:41.898Z,40.30
2018-07-30T19:41:46.226Z,40.40
2018-07-30T19:46:50.234Z,40.40
2018-07-30T19:56:58.094Z,40.70
2018-07-30T20:02:02.479Z,40.70
2018-07-30T20:07:06.704Z,40.80
2018-07-30T20:12:10.630Z,41.00
2018-07-30T20:17:14.409Z,41.00
2018-07-30T20:22:18.625Z,41.00
2018-07-30T20:27:22.592Z,41.20
2018-07-30T20:32:26.847Z,41.40
2018-07-30T20:37:30.825Z,41.30
2018-07-30T20:42:35.063Z,41.40
2018-07-30T20:47:39.034Z,41.50
2018-07-30T20:52:43.013Z,41.40
2018-07-30T20:57:47.104Z,41.50
2018-07-30T21:02:50.898Z,41.50
2018-07-30T21:07:54.846Z,41.50
2018-07-30T21:12:59.652Z,41.60
2018-07-30T21:18:03.593Z,41.70
2018-07-30T21:23:08.236Z,41.70
2018-07-30T21:28:12.258Z,41.80
2018-07-30T21:33:17.672Z,41.80
2018-07-30T21:38:21.961Z,41.80
2018-07-30T21:43:25.949Z,41.80
2018-07-30T21:48:30.075Z,41.90
2018-07-30T21:53:34.176Z,41.90
2018-07-30T21:58:38.531Z,42.00
2018-07-30T22:03:42.858Z,42.00
